sensor_id;sensor_type;location;lat;lon;timestamp;P1;durP1;ratioP1;P2;durP2;ratioP2
9188;SDS011;34313;50.780;6.084;2023-10-19T00:01:57;1.10;;;1.00;;
9188;SDS011;34313;50.780;6.084;2023-10-19T00:04:24;3.53;;;1.20;;
9188;SDS011;34313;50.780;6.084;2023-10-19T00:06:50;1.20;;;1.10;;
9188;SDS011;34313;50.780;6.084;2023-10-19T00:09:15;1.43;;;0.90;;
9188;SDS011;34313;50.780;6.084;2023-10-19T00:11:41;1.50;;;1.40;;
9188;SDS011;34313;50.780;6.084;2023-10-19T00:14:06;2.50;;;1.40;;
9188;SDS011;34313;50.780;6.084;2023-10-19T00:16:41;1.30;;;1.20;;
9188;SDS011;34313;50.780;6.084;2023-10-19T00:19:19;1.83;;;1.10;;
9188;SDS011;34313;50.780;6.084;2023-10-19T00:21:45;4.50;;;1.10;;
9188;SDS011;34313;50.780;6.084;2023-10-19T00:24:19;3.13;;;1.33;;
9188;SDS011;34313;50.780;6.084;2023-10-19T00:26:47;1.97;;;1.30;;
9188;SDS011;34313;50.780;6.084;2023-10-19T00:29:13;1.17;;;1.07;;
9188;SDS011;34313;50.780;6.084;2023-10-19T00:31:58;1.20;;;1.07;;
9188;SDS011;34313;50.780;6.084;2023-10-19T00:34:25;1.43;;;1.10;;
9188;SDS011;34313;50.780;6.084;2023-10-19T00:36:53;2.70;;;1.63;;
9188;SDS011;34313;50.780;6.084;2023-10-19T00:39:20;1.63;;;0.80;;
9188;SDS011;34313;50.780;6.084;2023-10-19T00:41:46;3.03;;;1.20;;
9188;SDS011;34313;50.780;6.084;2023-10-19T00:44:12;0.77;;;0.77;;
9188;SDS011;34313;50.780;6.084;2023-10-19T00:46:41;1.43;;;0.83;;
9188;SDS011;34313;50.780;6.084;2023-10-19T00:49:07;1.20;;;0.90;;
9188;SDS011;34313;50.780;6.084;2023-10-19T00:51:38;1.40;;;0.90;;
9188;SDS011;34313;50.780;6.084;2023-10-19T00:54:16;2.70;;;1.10;;
9188;SDS011;34313;50.780;6.084;2023-10-19T00:56:51;0.63;;;0.63;;
9188;SDS011;34313;50.780;6.084;2023-10-19T00:59:20;1.27;;;0.90;;
9188;SDS011;34313;50.780;6.084;2023-10-19T01:01:50;2.67;;;0.73;;
9188;SDS011;34313;50.780;6.084;2023-10-19T01:04:19;2.90;;;1.00;;
9188;SDS011;34313;50.780;6.084;2023-10-19T01:06:47;1.70;;;0.90;;
9188;SDS011;34313;50.780;6.084;2023-10-19T01:09:43;1.23;;;0.70;;
9188;SDS011;34313;50.780;6.084;2023-10-19T01:12:09;2.30;;;0.80;;
9188;SDS011;34313;50.780;6.084;2023-10-19T01:17:39;3.63;;;0.80;;
9188;SDS011;34313;50.780;6.084;2023-10-19T01:20:09;3.20;;;0.90;;
9188;SDS011;34313;50.780;6.084;2023-10-19T01:31:20;3.80;;;0.83;;
9188;SDS011;34313;50.780;6.084;2023-10-19T01:33:55;1.90;;;0.90;;
9188;SDS011;34313;50.780;6.084;2023-10-19T01:36:23;4.07;;;0.80;;
9188;SDS011;34313;50.780;6.084;2023-10-19T01:38:49;2.40;;;0.90;;
9188;SDS011;34313;50.780;6.084;2023-10-19T01:41:18;1.17;;;0.93;;
9188;SDS011;34313;50.780;6.084;2023-10-19T01:43:45;1.37;;;0.70;;
9188;SDS011;34313;50.780;6.084;2023-10-19T01:46:14;5.77;;;1.30;;
9188;SDS011;34313;50.780;6.084;2023-10-19T01:48:50;1.37;;;0.60;;
9188;SDS011;34313;50.780;6.084;2023-10-19T01:51:21;2.10;;;0.80;;
9188;SDS011;34313;50.780;6.084;2023-10-19T01:53:50;1.00;;;0.73;;
9188;SDS011;34313;50.780;6.084;2023-10-19T01:56:16;1.30;;;0.80;;
9188;SDS011;34313;50.780;6.084;2023-10-19T01:58:42;1.83;;;0.80;;
9188;SDS011;34313;50.780;6.084;2023-10-19T02:01:11;2.20;;;0.90;;
9188;SDS011;34313;50.780;6.084;2023-10-19T02:03:37;4.97;;;1.07;;
9188;SDS011;34313;50.780;6.084;2023-10-19T02:06:13;2.20;;;0.97;;
9188;SDS011;34313;50.780;6.084;2023-10-19T02:11:16;1.93;;;0.73;;
9188;SDS011;34313;50.780;6.084;2023-10-19T02:13:45;1.83;;;0.90;;
9188;SDS011;34313;50.780;6.084;2023-10-19T02:16:12;2.30;;;0.87;;
9188;SDS011;34313;50.780;6.084;2023-10-19T02:18:40;2.93;;;0.60;;
9188;SDS011;34313;50.780;6.084;2023-10-19T02:21:07;4.53;;;0.90;;
9188;SDS011;34313;50.780;6.084;2023-10-19T02:23:33;2.10;;;0.80;;
9188;SDS011;34313;50.780;6.084;2023-10-19T02:26:01;4.40;;;0.77;;
9188;SDS011;34313;50.780;6.084;2023-10-19T02:28:28;3.40;;;0.83;;
9188;SDS011;34313;50.780;6.084;2023-10-19T02:30:56;1.67;;;0.67;;
9188;SDS011;34313;50.780;6.084;2023-10-19T02:33:36;2.10;;;0.90;;
9188;SDS011;34313;50.780;6.084;2023-10-19T02:36:02;3.43;;;0.73;;
9188;SDS011;34313;50.780;6.084;2023-10-19T02:38:28;7.10;;;1.00;;
9188;SDS011;34313;50.780;6.084;2023-10-19T02:40:55;3.50;;;0.80;;
9188;SDS011;34313;50.780;6.084;2023-10-19T02:43:20;1.83;;;0.60;;
9188;SDS011;34313;50.780;6.084;2023-10-19T02:45:47;4.23;;;0.87;;
9188;SDS011;34313;50.780;6.084;2023-10-19T02:48:13;2.17;;;0.40;;
9188;SDS011;34313;50.780;6.084;2023-10-19T02:50:38;2.73;;;0.80;;
9188;SDS011;34313;50.780;6.084;2023-10-19T02:53:03;2.43;;;0.90;;
9188;SDS011;34313;50.780;6.084;2023-10-19T02:55:30;2.10;;;0.90;;
9188;SDS011;34313;50.780;6.084;2023-10-19T02:57:56;2.70;;;0.80;;
9188;SDS011;34313;50.780;6.084;2023-10-19T03:00:24;2.20;;;0.90;;
9188;SDS011;34313;50.780;6.084;2023-10-19T03:02:57;1.83;;;0.60;;
9188;SDS011;34313;50.780;6.084;2023-10-19T03:05:24;6.20;;;0.93;;
9188;SDS011;34313;50.780;6.084;2023-10-19T03:07:51;1.63;;;0.70;;
9188;SDS011;34313;50.780;6.084;2023-10-19T03:10:17;3.70;;;1.00;;
9188;SDS011;34313;50.780;6.084;2023-10-19T03:12:59;1.13;;;0.70;;
9188;SDS011;34313;50.780;6.084;2023-10-19T03:15:29;3.87;;;0.90;;
9188;SDS011;34313;50.780;6.084;2023-10-19T03:17:58;1.03;;;0.60;;
9188;SDS011;34313;50.780;6.084;2023-10-19T03:20:23;2.30;;;0.80;;
9188;SDS011;34313;50.780;6.084;2023-10-19T03:22:50;0.80;;;0.60;;
9188;SDS011;34313;50.780;6.084;2023-10-19T03:25:16;2.60;;;0.80;;
9188;SDS011;34313;50.780;6.084;2023-10-19T03:28:00;2.20;;;0.83;;
9188;SDS011;34313;50.780;6.084;2023-10-19T03:30:35;1.07;;;0.87;;
9188;SDS011;34313;50.780;6.084;2023-10-19T03:33:05;3.70;;;0.90;;
9188;SDS011;34313;50.780;6.084;2023-10-19T03:35:33;2.57;;;0.60;;
9188;SDS011;34313;50.780;6.084;2023-10-19T03:38:00;1.37;;;0.70;;
9188;SDS011;34313;50.780;6.084;2023-10-19T03:40:28;5.13;;;0.90;;
9188;SDS011;34313;50.780;6.084;2023-10-19T03:42:55;4.50;;;1.30;;
9188;SDS011;34313;50.780;6.084;2023-10-19T03:45:20;1.67;;;0.90;;
9188;SDS011;34313;50.780;6.084;2023-10-19T03:47:49;3.07;;;0.80;;
9188;SDS011;34313;50.780;6.084;2023-10-19T03:50:15;2.97;;;0.70;;
9188;SDS011;34313;50.780;6.084;2023-10-19T03:52:45;3.50;;;0.90;;
9188;SDS011;34313;50.780;6.084;2023-10-19T03:55:10;2.43;;;0.90;;
9188;SDS011;34313;50.780;6.084;2023-10-19T03:57:37;1.07;;;0.70;;
9188;SDS011;34313;50.780;6.084;2023-10-19T04:00:08;2.50;;;0.80;;
9188;SDS011;34313;50.780;6.084;2023-10-19T04:02:41;1.70;;;0.60;;
9188;SDS011;34313;50.780;6.084;2023-10-19T04:05:07;2.20;;;0.90;;
9188;SDS011;34313;50.780;6.084;2023-10-19T04:07:45;2.00;;;0.70;;
9188;SDS011;34313;50.780;6.084;2023-10-19T04:10:11;8.00;;;0.97;;
9188;SDS011;34313;50.780;6.084;2023-10-19T04:12:54;4.40;;;0.70;;
9188;SDS011;34313;50.780;6.084;2023-10-19T04:15:20;1.90;;;0.70;;
9188;SDS011;34313;50.780;6.084;2023-10-19T04:17:46;1.33;;;0.60;;
9188;SDS011;34313;50.780;6.084;2023-10-19T04:20:14;1.30;;;0.73;;
9188;SDS011;34313;50.780;6.084;2023-10-19T04:25:09;1.90;;;0.70;;
9188;SDS011;34313;50.780;6.084;2023-10-19T04:27:40;2.80;;;0.90;;
9188;SDS011;34313;50.780;6.084;2023-10-19T04:30:07;3.47;;;1.00;;
9188;SDS011;34313;50.780;6.084;2023-10-19T04:32:40;2.53;;;0.97;;
9188;SDS011;34313;50.780;6.084;2023-10-19T04:35:06;4.13;;;0.90;;
9188;SDS011;34313;50.780;6.084;2023-10-19T04:37:34;3.00;;;0.83;;
9188;SDS011;34313;50.780;6.084;2023-10-19T04:39:59;3.50;;;0.90;;
9188;SDS011;34313;50.780;6.084;2023-10-19T04:42:26;3.53;;;1.07;;
9188;SDS011;34313;50.780;6.084;2023-10-19T04:44:52;4.77;;;0.70;;
9188;SDS011;34313;50.780;6.084;2023-10-19T04:47:20;2.50;;;0.83;;
9188;SDS011;34313;50.780;6.084;2023-10-19T04:49:47;1.60;;;0.60;;
9188;SDS011;34313;50.780;6.084;2023-10-19T04:52:12;2.17;;;0.70;;
9188;SDS011;34313;50.780;6.084;2023-10-19T04:54:38;1.60;;;0.80;;
9188;SDS011;34313;50.780;6.084;2023-10-19T04:57:03;4.50;;;1.00;;
9188;SDS011;34313;50.780;6.084;2023-10-19T04:59:29;2.73;;;1.00;;
9188;SDS011;34313;50.780;6.084;2023-10-19T05:01:58;2.63;;;1.00;;
9188;SDS011;34313;50.780;6.084;2023-10-19T05:04:23;5.40;;;0.90;;
9188;SDS011;34313;50.780;6.084;2023-10-19T05:06:49;3.50;;;0.90;;
9188;SDS011;34313;50.780;6.084;2023-10-19T05:09:14;3.97;;;0.90;;
9188;SDS011;34313;50.780;6.084;2023-10-19T05:11:40;2.70;;;0.93;;
9188;SDS011;34313;50.780;6.084;2023-10-19T05:14:05;3.63;;;0.80;;
9188;SDS011;34313;50.780;6.084;2023-10-19T05:16:30;1.60;;;0.70;;
9188;SDS011;34313;50.780;6.084;2023-10-19T05:18:56;3.97;;;0.90;;
9188;SDS011;34313;50.780;6.084;2023-10-19T05:21:21;2.77;;;1.10;;
9188;SDS011;34313;50.780;6.084;2023-10-19T05:23:46;2.07;;;1.23;;
9188;SDS011;34313;50.780;6.084;2023-10-19T05:26:12;1.77;;;1.20;;
9188;SDS011;34313;50.780;6.084;2023-10-19T05:28:39;2.33;;;1.27;;
9188;SDS011;34313;50.780;6.084;2023-10-19T05:31:05;2.83;;;1.03;;
9188;SDS011;34313;50.780;6.084;2023-10-19T05:33:30;4.53;;;1.00;;
9188;SDS011;34313;50.780;6.084;2023-10-19T05:35:55;2.50;;;1.00;;
9188;SDS011;34313;50.780;6.084;2023-10-19T05:38:21;3.90;;;1.17;;
9188;SDS011;34313;50.780;6.084;2023-10-19T05:40:47;5.30;;;1.33;;
9188;SDS011;34313;50.780;6.084;2023-10-19T05:43:14;4.83;;;1.27;;
9188;SDS011;34313;50.780;6.084;2023-10-19T05:45:40;2.33;;;1.13;;
9188;SDS011;34313;50.780;6.084;2023-10-19T05:48:06;3.30;;;1.30;;
9188;SDS011;34313;50.780;6.084;2023-10-19T05:50:35;5.17;;;1.17;;
9188;SDS011;34313;50.780;6.084;2023-10-19T05:53:02;4.03;;;1.20;;
9188;SDS011;34313;50.780;6.084;2023-10-19T05:55:28;8.73;;;1.40;;
9188;SDS011;34313;50.780;6.084;2023-10-19T05:57:54;3.50;;;1.27;;
9188;SDS011;34313;50.780;6.084;2023-10-19T06:00:19;8.20;;;1.40;;
9188;SDS011;34313;50.780;6.084;2023-10-19T06:02:46;4.00;;;0.93;;
9188;SDS011;34313;50.780;6.084;2023-10-19T06:05:14;6.47;;;1.33;;
9188;SDS011;34313;50.780;6.084;2023-10-19T06:07:41;6.60;;;1.37;;
9188;SDS011;34313;50.780;6.084;2023-10-19T06:10:14;2.83;;;1.10;;
9188;SDS011;34313;50.780;6.084;2023-10-19T06:12:41;5.07;;;1.23;;
9188;SDS011;34313;50.780;6.084;2023-10-19T06:15:08;5.10;;;1.23;;
9188;SDS011;34313;50.780;6.084;2023-10-19T06:17:36;2.03;;;0.93;;
9188;SDS011;34313;50.780;6.084;2023-10-19T06:20:01;7.60;;;1.20;;
9188;SDS011;34313;50.780;6.084;2023-10-19T06:22:27;2.50;;;1.30;;
9188;SDS011;34313;50.780;6.084;2023-10-19T06:24:53;4.10;;;2.57;;
9188;SDS011;34313;50.780;6.084;2023-10-19T06:27:18;3.00;;;1.80;;
9188;SDS011;34313;50.780;6.084;2023-10-19T06:29:44;3.70;;;1.20;;
9188;SDS011;34313;50.780;6.084;2023-10-19T06:32:09;8.03;;;1.47;;
9188;SDS011;34313;50.780;6.084;2023-10-19T06:34:37;4.10;;;1.30;;
9188;SDS011;34313;50.780;6.084;2023-10-19T06:37:03;4.53;;;1.20;;
9188;SDS011;34313;50.780;6.084;2023-10-19T06:39:32;4.20;;;1.50;;
9188;SDS011;34313;50.780;6.084;2023-10-19T06:41:57;9.13;;;1.73;;
9188;SDS011;34313;50.780;6.084;2023-10-19T06:44:22;6.60;;;1.23;;
9188;SDS011;34313;50.780;6.084;2023-10-19T06:46:48;9.10;;;1.83;;
9188;SDS011;34313;50.780;6.084;2023-10-19T06:49:16;3.50;;;1.30;;
9188;SDS011;34313;50.780;6.084;2023-10-19T06:51:42;6.53;;;1.80;;
9188;SDS011;34313;50.780;6.084;2023-10-19T06:54:08;4.53;;;1.47;;
9188;SDS011;34313;50.780;6.084;2023-10-19T06:56:33;5.73;;;1.50;;
9188;SDS011;34313;50.780;6.084;2023-10-19T06:59:01;2.70;;;1.27;;
9188;SDS011;34313;50.780;6.084;2023-10-19T07:01:30;11.07;;;2.00;;
9188;SDS011;34313;50.780;6.084;2023-10-19T07:03:57;3.20;;;1.97;;
9188;SDS011;34313;50.780;6.084;2023-10-19T07:06:23;5.10;;;1.73;;
9188;SDS011;34313;50.780;6.084;2023-10-19T07:08:49;3.10;;;1.37;;
9188;SDS011;34313;50.780;6.084;2023-10-19T07:11:15;3.60;;;1.60;;
9188;SDS011;34313;50.780;6.084;2023-10-19T07:13:40;4.93;;;1.80;;
9188;SDS011;34313;50.780;6.084;2023-10-19T07:16:06;4.77;;;1.13;;
9188;SDS011;34313;50.780;6.084;2023-10-19T07:18:34;4.27;;;1.53;;
9188;SDS011;34313;50.780;6.084;2023-10-19T07:20:59;10.17;;;1.90;;
9188;SDS011;34313;50.780;6.084;2023-10-19T07:23:28;2.73;;;1.23;;
9188;SDS011;34313;50.780;6.084;2023-10-19T07:25:53;7.53;;;1.50;;
9188;SDS011;34313;50.780;6.084;2023-10-19T07:28:21;4.27;;;1.50;;
9188;SDS011;34313;50.780;6.084;2023-10-19T07:30:55;5.40;;;1.60;;
9188;SDS011;34313;50.780;6.084;2023-10-19T07:33:27;3.97;;;1.20;;
9188;SDS011;34313;50.780;6.084;2023-10-19T07:35:53;5.03;;;1.80;;
9188;SDS011;34313;50.780;6.084;2023-10-19T07:42:20;4.60;;;1.60;;
9188;SDS011;34313;50.780;6.084;2023-10-19T07:44:46;3.50;;;1.20;;
9188;SDS011;34313;50.780;6.084;2023-10-19T07:47:11;6.63;;;1.50;;
9188;SDS011;34313;50.780;6.084;2023-10-19T07:49:37;5.10;;;1.80;;
9188;SDS011;34313;50.780;6.084;2023-10-19T07:52:05;11.53;;;2.10;;
9188;SDS011;34313;50.780;6.084;2023-10-19T07:54:36;7.70;;;1.60;;
9188;SDS011;34313;50.780;6.084;2023-10-19T07:57:02;8.07;;;1.77;;
9188;SDS011;34313;50.780;6.084;2023-10-19T07:59:31;5.43;;;1.60;;
9188;SDS011;34313;50.780;6.084;2023-10-19T08:01:59;11.47;;;2.27;;
9188;SDS011;34313;50.780;6.084;2023-10-19T08:04:29;10.83;;;2.03;;
9188;SDS011;34313;50.780;6.084;2023-10-19T08:06:55;5.20;;;1.70;;
9188;SDS011;34313;50.780;6.084;2023-10-19T08:09:21;8.27;;;1.70;;
9188;SDS011;34313;50.780;6.084;2023-10-19T08:11:56;5.87;;;2.00;;
9188;SDS011;34313;50.780;6.084;2023-10-19T08:14:24;6.80;;;2.00;;
9188;SDS011;34313;50.780;6.084;2023-10-19T08:16:55;7.57;;;1.87;;
9188;SDS011;34313;50.780;6.084;2023-10-19T08:19:21;3.30;;;1.17;;
9188;SDS011;34313;50.780;6.084;2023-10-19T08:21:47;5.93;;;1.57;;
9188;SDS011;34313;50.780;6.084;2023-10-19T08:24:12;7.20;;;1.43;;
9188;SDS011;34313;50.780;6.084;2023-10-19T08:26:42;7.10;;;1.43;;
9188;SDS011;34313;50.780;6.084;2023-10-19T08:29:10;7.23;;;1.73;;
9188;SDS011;34313;50.780;6.084;2023-10-19T08:31:39;5.73;;;1.90;;
9188;SDS011;34313;50.780;6.084;2023-10-19T08:34:05;8.20;;;2.00;;
9188;SDS011;34313;50.780;6.084;2023-10-19T08:36:31;7.00;;;1.50;;
9188;SDS011;34313;50.780;6.084;2023-10-19T08:38:56;6.30;;;1.67;;
9188;SDS011;34313;50.780;6.084;2023-10-19T08:41:22;5.80;;;1.90;;
9188;SDS011;34313;50.780;6.084;2023-10-19T08:43:48;8.00;;;1.67;;
9188;SDS011;34313;50.780;6.084;2023-10-19T08:46:15;8.93;;;1.83;;
9188;SDS011;34313;50.780;6.084;2023-10-19T08:48:41;6.67;;;2.17;;
9188;SDS011;34313;50.780;6.084;2023-10-19T08:51:09;5.13;;;1.17;;
9188;SDS011;34313;50.780;6.084;2023-10-19T08:53:38;7.80;;;1.87;;
9188;SDS011;34313;50.780;6.084;2023-10-19T08:56:09;6.57;;;1.90;;
9188;SDS011;34313;50.780;6.084;2023-10-19T08:58:36;8.10;;;1.90;;
9188;SDS011;34313;50.780;6.084;2023-10-19T09:01:02;5.30;;;1.30;;
9188;SDS011;34313;50.780;6.084;2023-10-19T09:03:31;6.97;;;1.70;;
9188;SDS011;34313;50.780;6.084;2023-10-19T09:06:00;8.73;;;1.90;;
9188;SDS011;34313;50.780;6.084;2023-10-19T09:08:26;7.73;;;1.80;;
9188;SDS011;34313;50.780;6.084;2023-10-19T09:11:05;5.30;;;2.00;;
9188;SDS011;34313;50.780;6.084;2023-10-19T09:13:42;10.83;;;1.93;;
9188;SDS011;34313;50.780;6.084;2023-10-19T09:16:15;6.97;;;1.87;;
9188;SDS011;34313;50.780;6.084;2023-10-19T09:18:42;9.03;;;2.20;;
9188;SDS011;34313;50.780;6.084;2023-10-19T09:21:07;11.37;;;1.50;;
9188;SDS011;34313;50.780;6.084;2023-10-19T09:23:36;10.70;;;1.77;;
9188;SDS011;34313;50.780;6.084;2023-10-19T09:26:03;6.07;;;2.00;;
9188;SDS011;34313;50.780;6.084;2023-10-19T09:28:30;10.40;;;1.87;;
9188;SDS011;34313;50.780;6.084;2023-10-19T09:30:58;9.57;;;1.97;;
9188;SDS011;34313;50.780;6.084;2023-10-19T09:33:25;10.20;;;2.10;;
9188;SDS011;34313;50.780;6.084;2023-10-19T09:35:52;4.97;;;1.70;;
9188;SDS011;34313;50.780;6.084;2023-10-19T09:38:19;3.93;;;1.33;;
9188;SDS011;34313;50.780;6.084;2023-10-19T09:40:50;8.40;;;1.80;;
9188;SDS011;34313;50.780;6.084;2023-10-19T09:43:21;7.50;;;1.87;;
9188;SDS011;34313;50.780;6.084;2023-10-19T09:45:56;5.03;;;2.10;;
9188;SDS011;34313;50.780;6.084;2023-10-19T09:48:25;8.77;;;1.87;;
9188;SDS011;34313;50.780;6.084;2023-10-19T09:50:52;9.30;;;1.60;;
9188;SDS011;34313;50.780;6.084;2023-10-19T09:53:21;8.77;;;2.00;;
9188;SDS011;34313;50.780;6.084;2023-10-19T09:55:49;5.50;;;1.67;;
9188;SDS011;34313;50.780;6.084;2023-10-19T09:58:16;4.83;;;1.60;;
9188;SDS011;34313;50.780;6.084;2023-10-19T10:00:44;8.80;;;1.80;;
9188;SDS011;34313;50.780;6.084;2023-10-19T10:06:07;5.13;;;1.60;;
9188;SDS011;34313;50.780;6.084;2023-10-19T10:08:33;5.87;;;1.83;;
9188;SDS011;34313;50.780;6.084;2023-10-19T10:11:12;6.17;;;1.50;;
9188;SDS011;34313;50.780;6.084;2023-10-19T10:13:56;5.77;;;1.57;;
9188;SDS011;34313;50.780;6.084;2023-10-19T10:16:24;8.50;;;1.77;;
9188;SDS011;34313;50.780;6.084;2023-10-19T10:18:51;6.07;;;1.60;;
9188;SDS011;34313;50.780;6.084;2023-10-19T10:21:21;8.00;;;2.03;;
9188;SDS011;34313;50.780;6.084;2023-10-19T10:23:48;9.60;;;2.13;;
9188;SDS011;34313;50.780;6.084;2023-10-19T10:26:28;5.30;;;1.60;;
9188;SDS011;34313;50.780;6.084;2023-10-19T10:31:47;10.13;;;2.10;;
9188;SDS011;34313;50.780;6.084;2023-10-19T10:37:06;5.83;;;1.77;;
9188;SDS011;34313;50.780;6.084;2023-10-19T10:39:39;3.43;;;1.67;;
9188;SDS011;34313;50.780;6.084;2023-10-19T10:42:09;8.57;;;2.27;;
9188;SDS011;34313;50.780;6.084;2023-10-19T10:49:35;11.97;;;1.57;;
9188;SDS011;34313;50.780;6.084;2023-10-19T10:52:12;4.50;;;1.60;;
9188;SDS011;34313;50.780;6.084;2023-10-19T10:54:38;8.30;;;2.00;;
9188;SDS011;34313;50.780;6.084;2023-10-19T10:57:04;8.03;;;1.73;;
9188;SDS011;34313;50.780;6.084;2023-10-19T10:59:30;5.13;;;1.87;;
9188;SDS011;34313;50.780;6.084;2023-10-19T11:01:55;8.00;;;2.00;;
9188;SDS011;34313;50.780;6.084;2023-10-19T11:04:20;9.77;;;2.17;;
9188;SDS011;34313;50.780;6.084;2023-10-19T11:06:49;6.13;;;2.13;;
9188;SDS011;34313;50.780;6.084;2023-10-19T11:09:16;10.33;;;2.50;;
9188;SDS011;34313;50.780;6.084;2023-10-19T11:11:45;8.27;;;1.87;;
9188;SDS011;34313;50.780;6.084;2023-10-19T11:14:11;7.03;;;1.97;;
9188;SDS011;34313;50.780;6.084;2023-10-19T11:16:37;9.43;;;1.70;;
9188;SDS011;34313;50.780;6.084;2023-10-19T11:19:04;5.50;;;1.37;;
9188;SDS011;34313;50.780;6.084;2023-10-19T11:21:29;6.53;;;1.80;;
9188;SDS011;34313;50.780;6.084;2023-10-19T11:23:55;8.80;;;2.17;;
9188;SDS011;34313;50.780;6.084;2023-10-19T11:26:22;5.47;;;2.13;;
9188;SDS011;34313;50.780;6.084;2023-10-19T11:28:58;4.10;;;2.10;;
9188;SDS011;34313;50.780;6.084;2023-10-19T11:31:25;5.40;;;1.63;;
9188;SDS011;34313;50.780;6.084;2023-10-19T11:33:52;6.33;;;1.90;;
9188;SDS011;34313;50.780;6.084;2023-10-19T11:36:20;6.43;;;1.93;;
9188;SDS011;34313;50.780;6.084;2023-10-19T11:38:49;4.73;;;1.80;;
9188;SDS011;34313;50.780;6.084;2023-10-19T11:41:16;6.93;;;1.50;;
9188;SDS011;34313;50.780;6.084;2023-10-19T11:43:43;4.23;;;1.20;;
9188;SDS011;34313;50.780;6.084;2023-10-19T11:46:09;6.33;;;1.40;;
9188;SDS011;34313;50.780;6.084;2023-10-19T11:48:36;6.30;;;1.53;;
9188;SDS011;34313;50.780;6.084;2023-10-19T11:51:03;5.30;;;1.30;;
9188;SDS011;34313;50.780;6.084;2023-10-19T11:53:32;5.80;;;1.50;;
9188;SDS011;34313;50.780;6.084;2023-10-19T11:56:02;5.20;;;1.80;;
9188;SDS011;34313;50.780;6.084;2023-10-19T11:58:29;5.63;;;2.17;;
9188;SDS011;34313;50.780;6.084;2023-10-19T12:00:57;4.00;;;1.73;;
9188;SDS011;34313;50.780;6.084;2023-10-19T12:03:23;2.93;;;1.40;;
9188;SDS011;34313;50.780;6.084;2023-10-19T12:05:48;3.47;;;1.60;;
9188;SDS011;34313;50.780;6.084;2023-10-19T12:08:13;8.73;;;1.30;;
9188;SDS011;34313;50.780;6.084;2023-10-19T12:10:39;2.60;;;1.03;;
9188;SDS011;34313;50.780;6.084;2023-10-19T12:13:04;8.67;;;1.60;;
9188;SDS011;34313;50.780;6.084;2023-10-19T12:15:34;5.70;;;1.30;;
9188;SDS011;34313;50.780;6.084;2023-10-19T12:17:59;5.27;;;1.70;;
9188;SDS011;34313;50.780;6.084;2023-10-19T12:20:26;6.30;;;2.10;;
9188;SDS011;34313;50.780;6.084;2023-10-19T12:22:52;4.60;;;1.60;;
9188;SDS011;34313;50.780;6.084;2023-10-19T12:25:21;3.40;;;1.27;;
9188;SDS011;34313;50.780;6.084;2023-10-19T12:27:53;6.67;;;1.43;;
9188;SDS011;34313;50.780;6.084;2023-10-19T12:30:19;5.10;;;1.50;;
9188;SDS011;34313;50.780;6.084;2023-10-19T12:32:46;3.97;;;1.57;;
9188;SDS011;34313;50.780;6.084;2023-10-19T12:35:14;4.50;;;1.67;;
9188;SDS011;34313;50.780;6.084;2023-10-19T12:37:40;4.93;;;1.27;;
9188;SDS011;34313;50.780;6.084;2023-10-19T12:40:11;5.60;;;1.50;;
9188;SDS011;34313;50.780;6.084;2023-10-19T12:42:51;4.70;;;1.20;;
9188;SDS011;34313;50.780;6.084;2023-10-19T12:45:19;4.40;;;1.40;;
9188;SDS011;34313;50.780;6.084;2023-10-19T12:47:46;1.93;;;1.40;;
9188;SDS011;34313;50.780;6.084;2023-10-19T12:50:11;7.00;;;1.50;;
9188;SDS011;34313;50.780;6.084;2023-10-19T12:52:38;5.37;;;1.80;;
9188;SDS011;34313;50.780;6.084;2023-10-19T12:55:05;7.50;;;1.63;;
9188;SDS011;34313;50.780;6.084;2023-10-19T12:57:31;7.70;;;1.57;;
9188;SDS011;34313;50.780;6.084;2023-10-19T12:59:57;6.33;;;1.57;;
9188;SDS011;34313;50.780;6.084;2023-10-19T13:02:23;6.43;;;2.00;;
9188;SDS011;34313;50.780;6.084;2023-10-19T13:04:49;3.07;;;2.00;;
9188;SDS011;34313;50.780;6.084;2023-10-19T13:07:15;4.17;;;1.53;;
9188;SDS011;34313;50.780;6.084;2023-10-19T13:09:41;4.57;;;1.73;;
9188;SDS011;34313;50.780;6.084;2023-10-19T13:12:09;4.17;;;1.47;;
9188;SDS011;34313;50.780;6.084;2023-10-19T13:14:35;4.17;;;1.67;;
9188;SDS011;34313;50.780;6.084;2023-10-19T13:17:00;8.43;;;1.50;;
9188;SDS011;34313;50.780;6.084;2023-10-19T13:19:25;5.40;;;1.50;;
9188;SDS011;34313;50.780;6.084;2023-10-19T13:21:51;4.67;;;1.57;;
9188;SDS011;34313;50.780;6.084;2023-10-19T13:24:18;5.47;;;2.07;;
9188;SDS011;34313;50.780;6.084;2023-10-19T13:26:45;9.23;;;1.97;;
9188;SDS011;34313;50.780;6.084;2023-10-19T13:29:11;5.20;;;2.20;;
9188;SDS011;34313;50.780;6.084;2023-10-19T13:31:37;4.73;;;1.53;;
9188;SDS011;34313;50.780;6.084;2023-10-19T13:34:03;5.63;;;1.90;;
9188;SDS011;34313;50.780;6.084;2023-10-19T13:36:30;4.40;;;1.67;;
9188;SDS011;34313;50.780;6.084;2023-10-19T13:38:56;3.13;;;1.77;;
9188;SDS011;34313;50.780;6.084;2023-10-19T13:41:21;6.20;;;2.13;;
9188;SDS011;34313;50.780;6.084;2023-10-19T13:43:47;7.10;;;2.27;;
9188;SDS011;34313;50.780;6.084;2023-10-19T13:46:13;4.80;;;1.93;;
9188;SDS011;34313;50.780;6.084;2023-10-19T13:48:39;6.63;;;2.57;;
9188;SDS011;34313;50.780;6.084;2023-10-19T13:51:05;16.10;;;8.63;;
9188;SDS011;34313;50.780;6.084;2023-10-19T13:53:37;5.10;;;3.07;;
9188;SDS011;34313;50.780;6.084;2023-10-19T13:56:09;4.97;;;2.20;;
9188;SDS011;34313;50.780;6.084;2023-10-19T13:58:34;2.80;;;1.80;;
9188;SDS011;34313;50.780;6.084;2023-10-19T14:01:00;5.40;;;2.00;;
9188;SDS011;34313;50.780;6.084;2023-10-19T14:03:25;2.23;;;1.40;;
9188;SDS011;34313;50.780;6.084;2023-10-19T14:05:51;2.50;;;1.40;;
9188;SDS011;34313;50.780;6.084;2023-10-19T14:08:21;5.20;;;2.00;;
9188;SDS011;34313;50.780;6.084;2023-10-19T14:10:47;4.87;;;2.07;;
9188;SDS011;34313;50.780;6.084;2023-10-19T14:13:12;4.83;;;1.90;;
9188;SDS011;34313;50.780;6.084;2023-10-19T14:15:38;5.13;;;2.07;;
9188;SDS011;34313;50.780;6.084;2023-10-19T14:18:04;4.17;;;1.63;;
9188;SDS011;34313;50.780;6.084;2023-10-19T14:20:30;8.03;;;2.03;;
9188;SDS011;34313;50.780;6.084;2023-10-19T14:22:56;6.23;;;1.80;;
9188;SDS011;34313;50.780;6.084;2023-10-19T14:25:22;5.17;;;2.33;;
9188;SDS011;34313;50.780;6.084;2023-10-19T14:27:49;8.40;;;2.40;;
9188;SDS011;34313;50.780;6.084;2023-10-19T14:30:17;6.47;;;2.40;;
9188;SDS011;34313;50.780;6.084;2023-10-19T14:32:44;4.70;;;2.00;;
9188;SDS011;34313;50.780;6.084;2023-10-19T14:35:12;2.53;;;1.83;;
9188;SDS011;34313;50.780;6.084;2023-10-19T14:37:41;3.37;;;2.00;;
9188;SDS011;34313;50.780;6.084;2023-10-19T14:40:11;2.50;;;2.00;;
9188;SDS011;34313;50.780;6.084;2023-10-19T14:42:47;4.40;;;1.93;;
9188;SDS011;34313;50.780;6.084;2023-10-19T14:45:16;3.10;;;2.10;;
9188;SDS011;34313;50.780;6.084;2023-10-19T14:47:49;1.50;;;1.40;;
9188;SDS011;34313;50.780;6.084;2023-10-19T14:50:19;5.03;;;2.30;;
9188;SDS011;34313;50.780;6.084;2023-10-19T14:52:46;3.03;;;1.83;;
9188;SDS011;34313;50.780;6.084;2023-10-19T14:55:13;6.83;;;1.50;;
9188;SDS011;34313;50.780;6.084;2023-10-19T14:57:41;4.13;;;2.10;;
9188;SDS011;34313;50.780;6.084;2023-10-19T15:00:08;5.63;;;1.90;;
9188;SDS011;34313;50.780;6.084;2023-10-19T15:02:51;4.37;;;2.27;;
9188;SDS011;34313;50.780;6.084;2023-10-19T15:05:19;8.33;;;1.93;;
9188;SDS011;34313;50.780;6.084;2023-10-19T15:07:46;2.67;;;1.83;;
9188;SDS011;34313;50.780;6.084;2023-10-19T15:10:17;3.30;;;1.90;;
9188;SDS011;34313;50.780;6.084;2023-10-19T15:12:46;4.03;;;1.63;;
9188;SDS011;34313;50.780;6.084;2023-10-19T15:15:12;3.57;;;2.30;;
9188;SDS011;34313;50.780;6.084;2023-10-19T15:17:41;5.60;;;2.10;;
9188;SDS011;34313;50.780;6.084;2023-10-19T15:20:08;2.87;;;2.07;;
9188;SDS011;34313;50.780;6.084;2023-10-19T15:22:35;5.50;;;2.17;;
9188;SDS011;34313;50.780;6.084;2023-10-19T15:25:01;4.53;;;1.77;;
9188;SDS011;34313;50.780;6.084;2023-10-19T15:27:27;3.37;;;1.73;;
9188;SDS011;34313;50.780;6.084;2023-10-19T15:29:56;6.70;;;3.37;;
9188;SDS011;34313;50.780;6.084;2023-10-19T15:32:22;4.37;;;2.60;;
9188;SDS011;34313;50.780;6.084;2023-10-19T15:34:49;4.33;;;2.83;;
9188;SDS011;34313;50.780;6.084;2023-10-19T15:37:15;2.63;;;1.60;;
9188;SDS011;34313;50.780;6.084;2023-10-19T15:39:40;1.30;;;1.10;;